Time;durP1;ratioP1;P1;durP2;ratioP2;P2;SDS_P1;SDS_P2;PMS_P1;PMS_P2;Temp;Humidity;BMP_temperature;BMP_pressure;BME280_temperature;BME280_humidity;BME280_pressure;Samples;Min_cycle;Max_cycle;Signal;HPM_P1;HPM_P2
2022/02/05 00:02:22;;;;;;;2.17;1.05;;;4.20;54.60;;;;;;5026187;28;20675;-77
2022/02/05 00:04:50;;;;;;;6.65;1.05;;;4.20;54.60;;;;;;5038431;28;20208;-79
2022/02/05 00:07:18;;;;;;;1.52;1.17;;;4.20;54.60;;;;;;5050297;28;20216;-77
2022/02/05 00:10:03;;;;;;;1.33;0.93;;;4.20;54.80;;;;;;5042150;28;20299;-78
2022/02/05 00:12:45;;;;;;;1.05;0.95;;;4.10;55.50;;;;;;5043716;28;20235;-78
2022/02/05 00:15:32;;;;;;;2.63;1.00;;;4.00;56.10;;;;;;5055711;28;20207;-78
2022/02/05 00:38:24;;;;;;;2.30;2.10;;;3.70;60.90;;;;;;5044186;28;20246;-75
2022/02/05 00:40:57;;;;;;;5.32;1.15;;;3.70;61.30;;;;;;5036567;28;20880;-77
2022/02/05 00:43:27;;;;;;;5.57;2.20;;;3.60;61.10;;;;;;5040594;28;20338;-76
2022/02/05 00:45:55;;;;;;;3.90;1.65;;;3.60;61.40;;;;;;5044832;28;20304;-77
2022/02/05 00:48:25;;;;;;;3.55;1.65;;;3.70;61.70;;;;;;5038847;28;20204;-77
2022/02/05 00:50:56;;;;;;;1.23;1.00;;;3.60;62.00;;;;;;5048110;28;20204;-77
2022/02/05 00:53:29;;;;;;;3.55;1.30;;;3.60;62.20;;;;;;5051255;28;20224;-77
2022/02/05 00:56:06;;;;;;;4.20;1.45;;;3.60;62.10;;;;;;5045092;28;20657;-77
2022/02/05 00:58:37;;;;;;;4.25;1.10;;;3.50;62.50;;;;;;5041281;28;20269;-77
2022/02/05 01:01:04;;;;;;;1.45;1.35;;;3.50;63.10;;;;;;5049119;28;20215;-77
2022/02/05 01:03:30;;;;;;;7.25;1.35;;;3.50;63.00;;;;;;5041753;28;20589;-78
2022/02/05 01:05:57;;;;;;;2.95;1.45;;;3.40;63.00;;;;;;5035412;28;20204;-78
2022/02/05 01:08:25;;;;;;;1.90;1.60;;;3.40;62.90;;;;;;5036288;28;20589;-77
2022/02/05 01:10:53;;;;;;;2.15;1.27;;;3.40;62.90;;;;;;5036259;28;20266;-77
2022/02/05 01:13:22;;;;;;;3.00;1.35;;;3.40;63.00;;;;;;5035351;28;20310;-77
2022/02/05 01:15:57;;;;;;;3.25;1.30;;;3.40;62.90;;;;;;5035717;28;20299;-76
2022/02/05 01:18:25;;;;;;;4.53;2.33;;;3.30;63.50;;;;;;5033868;28;20218;-77
2022/02/05 01:23:46;;;;;;;7.68;1.73;;;3.10;64.10;;;;;;5023994;28;20712;-78
2022/02/05 01:26:20;;;;;;;4.38;2.00;;;3.30;64.00;;;;;;5039922;28;20215;-77
2022/02/05 01:28:50;;;;;;;2.05;1.60;;;3.30;63.90;;;;;;5039801;28;20201;-77
2022/02/05 01:31:17;;;;;;;3.95;2.00;;;3.30;64.30;;;;;;5039229;28;20219;-78
2022/02/05 01:34:03;;;;;;;3.90;1.90;;;3.40;63.90;;;;;;5038077;28;20219;-77
2022/02/05 01:39:28;;;;;;;5.55;2.00;;;3.30;63.90;;;;;;5035199;28;20290;-79
2022/02/05 01:50:53;;;;;;;3.22;1.98;;;3.20;65.00;;;;;;5039948;28;20230;-78
2022/02/05 01:53:32;;;;;;;3.20;1.70;;;3.20;65.30;;;;;;5039808;28;20278;-77
2022/02/05 01:59:11;;;;;;;4.40;1.80;;;3.10;66.10;;;;;;5073690;27;21061;-76
2022/02/05 02:07:13;;;;;;;3.42;1.85;;;3.00;68.00;;;;;;5055265;28;20203;-78
2022/02/05 02:12:26;;;;;;;2.13;1.95;;;3.00;68.80;;;;;;5091802;22;20241;-75
2022/02/05 02:15:01;;;;;;;3.85;2.03;;;3.00;69.40;;;;;;5070102;28;20210;-74
2022/02/05 02:23:09;;;;;;;3.38;2.30;;;2.90;71.20;;;;;;5076120;28;20644;-74
2022/02/05 02:25:50;;;;;;;3.60;2.50;;;2.90;72.30;;;;;;5091034;28;20195;-74
2022/02/05 02:28:22;;;;;;;5.97;2.35;;;2.90;73.10;;;;;;5089601;28;20202;-74
2022/02/05 02:30:58;;;;;;;3.58;2.40;;;2.90;74.00;;;;;;5093113;28;20256;-76
2022/02/05 02:33:30;;;;;;;4.30;2.95;;;2.90;74.80;;;;;;5093186;28;20231;-76
2022/02/05 02:35:57;;;;;;;2.88;2.40;;;2.90;75.10;;;;;;5093284;28;20572;-76
2022/02/05 02:38:34;;;;;;;5.40;2.58;;;2.80;75.40;;;;;;5080843;28;20224;-76
2022/02/05 02:41:05;;;;;;;5.72;2.88;;;2.80;76.10;;;;;;5078258;28;20200;-75
2022/02/05 02:43:34;;;;;;;5.15;2.35;;;2.80;77.00;;;;;;5090186;28;20243;-76
2022/02/05 02:46:08;;;;;;;3.47;2.58;;;2.90;77.20;;;;;;5089147;28;20210;-76
2022/02/05 02:48:35;;;;;;;5.53;3.17;;;2.90;77.10;;;;;;5088964;28;20534;-75
2022/02/05 02:56:48;;;;;;;3.95;2.60;;;2.90;77.70;;;;;;5080732;28;20617;-75
2022/02/05 02:59:25;;;;;;;8.95;3.22;;;2.80;78.20;;;;;;5090977;28;20198;-74
2022/02/05 03:01:59;;;;;;;4.40;2.80;;;2.80;78.80;;;;;;5084757;28;20240;-75
2022/02/05 03:04:26;;;;;;;4.68;2.60;;;2.80;79.20;;;;;;5072204;28;20253;-75
2022/02/05 03:06:53;;;;;;;4.55;2.47;;;2.80;78.40;;;;;;5072990;28;20204;-75
2022/02/05 03:09:23;;;;;;;2.67;2.00;;;2.80;79.50;;;;;;5062604;28;20213;-76
2022/02/05 03:11:51;;;;;;;3.90;2.45;;;2.80;79.20;;;;;;5057720;28;20232;-75
2022/02/05 03:14:18;;;;;;;3.90;2.40;;;2.80;78.70;;;;;;5058521;28;20257;-76
2022/02/05 03:16:49;;;;;;;3.13;2.40;;;2.70;78.60;;;;;;5058476;28;20228;-76
2022/02/05 03:19:16;;;;;;;3.50;2.50;;;2.70;79.20;;;;;;5058781;28;20201;-76
2022/02/05 03:21:44;;;;;;;5.53;2.47;;;2.70;79.20;;;;;;5065168;28;20269;-75
2022/02/05 03:24:11;;;;;;;4.75;2.45;;;2.70;79.50;;;;;;5077796;28;20216;-76
2022/02/05 03:26:40;;;;;;;5.05;2.35;;;2.80;79.50;;;;;;5071460;28;20654;-77
2022/02/05 03:29:09;;;;;;;3.03;2.35;;;2.70;78.70;;;;;;5069106;28;20637;-76
2022/02/05 03:31:37;;;;;;;3.28;2.60;;;2.70;79.50;;;;;;5057357;28;20222;-76
2022/02/05 03:34:04;;;;;;;5.10;2.25;;;2.80;78.90;;;;;;5057885;28;20675;-74
2022/02/05 03:36:32;;;;;;;2.30;1.88;;;2.70;79.00;;;;;;5065996;28;20203;-77
2022/02/05 03:38:59;;;;;;;4.90;2.30;;;2.80;79.60;;;;;;5078767;28;20340;-75
2022/02/05 03:41:26;;;;;;;3.60;2.30;;;2.80;79.60;;;;;;5077761;28;20211;-75
2022/02/05 03:43:54;;;;;;;2.47;1.98;;;3.00;79.70;;;;;;5078696;28;20280;-75
2022/02/05 03:46:21;;;;;;;3.55;1.90;;;3.10;78.80;;;;;;5076405;28;20240;-75
2022/02/05 03:48:48;;;;;;;2.80;2.47;;;3.10;78.00;;;;;;5058416;28;20209;-76
2022/02/05 03:51:15;;;;;;;3.22;2.10;;;3.20;76.80;;;;;;5060753;28;20204;-74
2022/02/05 03:53:42;;;;;;;7.20;2.33;;;3.30;75.80;;;;;;5058717;28;20561;-76
2022/02/05 03:56:09;;;;;;;4.53;2.58;;;3.20;74.90;;;;;;5061767;28;20223;-76
2022/02/05 03:58:36;;;;;;;4.82;2.13;;;3.30;74.50;;;;;;5085296;28;20260;-74
2022/02/05 04:01:04;;;;;;;6.20;2.40;;;3.30;74.40;;;;;;5071361;28;20616;-75
2022/02/05 04:03:31;;;;;;;4.63;2.20;;;3.40;73.90;;;;;;5069566;28;20275;-74
2022/02/05 04:05:58;;;;;;;3.78;2.00;;;3.40;73.50;;;;;;5091092;28;20200;-74
2022/02/05 04:08:26;;;;;;;4.35;2.45;;;3.40;73.50;;;;;;5098042;28;20215;-74
2022/02/05 04:11:02;;;;;;;2.70;2.10;;;3.40;72.90;;;;;;5085877;28;20193;-75
2022/02/05 04:16:22;;;;;;;3.65;2.10;;;3.30;71.90;;;;;;5091640;28;20194;-75
2022/02/05 04:18:50;;;;;;;3.70;1.60;;;3.20;72.60;;;;;;5097850;28;20232;-74
2022/02/05 04:21:18;;;;;;;2.83;1.60;;;3.10;73.00;;;;;;5082475;28;20193;-74
2022/02/05 04:23:46;;;;;;;4.22;1.73;;;3.10;73.40;;;;;;5077988;28;20184;-75
2022/02/05 04:26:13;;;;;;;2.85;2.15;;;3.00;73.60;;;;;;5090522;28;20205;-75
2022/02/05 04:28:41;;;;;;;1.90;1.75;;;3.00;74.00;;;;;;5087148;28;20209;-76
2022/02/05 04:31:08;;;;;;;3.40;1.40;;;3.10;74.30;;;;;;5077522;28;20278;-74
2022/02/05 04:33:37;;;;;;;3.97;1.70;;;3.10;74.80;;;;;;5076129;28;20740;-76
2022/02/05 04:36:05;;;;;;;5.38;2.20;;;3.10;74.30;;;;;;5076878;28;20242;-75
2022/02/05 04:38:33;;;;;;;3.47;2.00;;;3.00;74.50;;;;;;5057600;28;20272;-77
2022/02/05 04:41:05;;;;;;;2.78;1.75;;;3.00;74.70;;;;;;5056211;28;20782;-76
2022/02/05 04:43:50;;;;;;;3.92;1.85;;;3.10;75.40;;;;;;5072995;28;20223;-76
2022/02/05 04:52:21;;;;;;;1.63;1.50;;;3.20;73.20;;;;;;4947174;28;20243;-76
2022/02/05 04:55:01;;;;;;;1.50;1.40;;;3.20;72.50;;;;;;4960489;29;20236;-73
2022/02/05 04:57:39;;;;;;;3.55;2.90;;;3.20;72.20;;;;;;4961610;29;20752;-77
2022/02/05 05:00:21;;;;;;;9.23;2.30;;;3.20;72.10;;;;;;4962158;29;20207;-76
2022/02/05 05:05:48;;;;;;;5.07;1.20;;;3.10;71.40;;;;;;4954953;28;20737;-77
2022/02/05 05:08:40;;;;;;;2.55;1.40;;;3.10;71.40;;;;;;4957933;29;20609;-75
2022/02/05 05:11:35;;;;;;;3.15;1.73;;;3.20;71.60;;;;;;4960209;29;20208;-77
2022/02/05 05:22:14;;;;;;;3.55;1.90;;;3.20;71.50;;;;;;5044795;28;20209;-74
2022/02/05 05:24:41;;;;;;;4.32;1.73;;;3.20;71.50;;;;;;5037029;28;20849;-76
2022/02/05 05:27:08;;;;;;;3.80;2.17;;;3.20;71.50;;;;;;5055112;28;20247;-76
2022/02/05 05:29:35;;;;;;;5.03;1.58;;;3.30;71.60;;;;;;5055189;28;20205;-76
2022/02/05 05:32:02;;;;;;;3.10;2.10;;;3.30;71.60;;;;;;5071988;28;20222;-75
2022/02/05 05:34:29;;;;;;;5.10;1.90;;;3.40;71.60;;;;;;5076209;28;20226;-77
2022/02/05 05:40:18;;;;;;;2.35;1.73;;;3.50;70.40;;;;;;5034322;28;20211;-74
2022/02/05 05:42:51;;;;;;;6.05;2.10;;;3.50;70.20;;;;;;5047614;28;20297;-77
2022/02/05 05:45:33;;;;;;;4.50;1.45;;;3.60;69.70;;;;;;5067648;28;20201;-76
2022/02/05 05:48:06;;;;;;;5.30;2.15;;;3.60;69.50;;;;;;5057242;28;20214;-76
2022/02/05 05:53:30;;;;;;;2.35;1.30;;;3.70;68.10;;;;;;4995712;28;20281;-76
2022/02/05 05:56:01;;;;;;;3.08;1.83;;;3.60;68.30;;;;;;5044772;28;20207;-76
2022/02/05 05:58:28;;;;;;;4.70;1.65;;;3.70;68.60;;;;;;5055485;28;20225;-74
2022/02/05 06:00:56;;;;;;;6.32;2.33;;;3.70;67.70;;;;;;5067225;28;20221;-75
2022/02/05 06:03:23;;;;;;;5.05;1.70;;;3.70;67.30;;;;;;5062225;28;20231;-75
2022/02/05 06:05:50;;;;;;;3.08;1.73;;;3.70;67.00;;;;;;5057122;28;20240;-75
2022/02/05 06:08:18;;;;;;;4.95;2.13;;;3.70;67.00;;;;;;5055244;28;20212;-77
2022/02/05 06:10:45;;;;;;;2.95;1.70;;;3.70;66.90;;;;;;5075806;28;20650;-76
2022/02/05 06:13:14;;;;;;;2.90;1.88;;;3.70;67.10;;;;;;5075186;28;20285;-76
2022/02/05 06:15:42;;;;;;;2.35;1.75;;;3.80;66.60;;;;;;5056235;28;20236;-77
2022/02/05 06:18:09;;;;;;;3.88;1.80;;;3.80;66.30;;;;;;5067826;28;20280;-74
2022/02/05 06:20:39;;;;;;;3.08;1.80;;;3.80;66.20;;;;;;5077035;28;20254;-75
2022/02/05 06:23:06;;;;;;;9.70;2.50;;;3.80;65.60;;;;;;5075281;28;20230;-75
2022/02/05 06:25:35;;;;;;;2.40;1.90;;;3.80;65.40;;;;;;5057026;28;20208;-75
2022/02/05 06:28:02;;;;;;;2.30;1.80;;;3.70;65.70;;;;;;5056531;28;20201;-76
2022/02/05 06:30:30;;;;;;;3.95;1.95;;;3.80;66.00;;;;;;5085118;28;20211;-75
2022/02/05 06:32:57;;;;;;;4.20;2.08;;;3.80;65.60;;;;;;5095123;28;20247;-74
2022/02/05 06:35:24;;;;;;;2.45;1.50;;;3.80;65.60;;;;;;5079469;28;20213;-75
2022/02/05 06:37:51;;;;;;;2.05;1.90;;;3.70;65.60;;;;;;5074725;28;20300;-75
2022/02/05 06:40:18;;;;;;;5.95;2.25;;;3.70;65.30;;;;;;5073918;28;20245;-75
2022/02/05 06:42:48;;;;;;;3.15;1.55;;;3.80;65.50;;;;;;5075334;28;20457;-77
2022/02/05 06:45:16;;;;;;;4.50;1.70;;;3.70;65.60;;;;;;5066840;28;20316;-77
2022/02/05 06:47:44;;;;;;;8.68;2.55;;;3.70;65.70;;;;;;5060392;28;20240;-77
2022/02/05 06:50:12;;;;;;;3.85;1.65;;;3.70;65.80;;;;;;5061578;28;20212;-76
2022/02/05 06:52:39;;;;;;;3.78;2.20;;;3.70;65.90;;;;;;5060743;28;20242;-77
2022/02/05 06:55:07;;;;;;;3.75;1.80;;;3.60;66.20;;;;;;5071586;28;20234;-75
2022/02/05 06:57:34;;;;;;;4.90;2.25;;;3.50;66.60;;;;;;5075442;28;20617;-77
2022/02/05 07:00:02;;;;;;;3.55;2.10;;;3.40;66.90;;;;;;5060352;28;20233;-76
2022/02/05 07:02:29;;;;;;;9.52;2.72;;;3.40;67.40;;;;;;5060052;28;20228;-76
2022/02/05 07:04:57;;;;;;;3.10;1.85;;;3.30;67.70;;;;;;5059394;28;20269;-76
2022/02/05 07:07:24;;;;;;;4.60;1.95;;;3.30;68.20;;;;;;5059695;28;20200;-78
2022/02/05 07:09:51;;;;;;;2.80;1.38;;;3.30;68.50;;;;;;5059049;28;20301;-77
2022/02/05 07:12:17;;;;;;;5.05;2.20;;;3.30;68.60;;;;;;5060539;28;20236;-75
2022/02/05 07:14:57;;;;;;;4.20;2.13;;;3.30;69.10;;;;;;5068594;28;20246;-76
2022/02/05 07:17:33;;;;;;;5.20;2.17;;;3.30;69.20;;;;;;5061958;28;20222;-76
2022/02/05 07:20:07;;;;;;;4.90;2.00;;;3.20;69.50;;;;;;5068057;28;20229;-76
2022/02/05 07:22:43;;;;;;;2.90;2.42;;;3.20;69.70;;;;;;5074646;28;20237;-74
2022/02/05 07:30:49;;;;;;;2.72;1.73;;;3.20;70.00;;;;;;5069027;28;20212;-77
2022/02/05 07:33:16;;;;;;;3.08;2.00;;;3.20;70.60;;;;;;5084724;28;20236;-77
2022/02/05 07:35:44;;;;;;;3.33;2.30;;;3.30;70.60;;;;;;5082664;28;20290;-77
2022/02/05 07:38:11;;;;;;;4.15;2.13;;;3.40;70.10;;;;;;5082528;28;20211;-76
2022/02/05 07:40:38;;;;;;;3.38;2.17;;;3.40;70.20;;;;;;5079273;28;20267;-77
2022/02/05 07:43:05;;;;;;;4.05;2.15;;;3.50;69.80;;;;;;5080630;28;20658;-76
2022/02/05 07:45:32;;;;;;;6.60;2.20;;;3.50;70.20;;;;;;5076987;28;20201;-74
2022/02/05 07:47:59;;;;;;;3.70;2.17;;;3.50;69.10;;;;;;5076908;28;20252;-76
2022/02/05 07:50:26;;;;;;;4.10;1.90;;;3.60;69.00;;;;;;5072936;28;20220;-76
2022/02/05 07:52:54;;;;;;;2.42;2.13;;;3.60;68.40;;;;;;5055748;28;20728;-77
2022/02/05 07:55:21;;;;;;;2.53;1.88;;;3.70;68.40;;;;;;5058357;28;20213;-77
2022/02/05 07:57:48;;;;;;;4.50;1.98;;;3.80;68.30;;;;;;5060157;28;20229;-77
2022/02/05 08:00:15;;;;;;;9.15;2.30;;;3.90;67.80;;;;;;5075680;28;20310;-77
2022/02/05 08:02:42;;;;;;;8.75;2.15;;;3.90;67.30;;;;;;5078125;28;20228;-75
2022/02/05 08:05:10;;;;;;;2.00;1.50;;;4.00;66.80;;;;;;5062463;28;20270;-77
2022/02/05 08:07:37;;;;;;;4.93;1.77;;;4.10;66.20;;;;;;5058833;28;20250;-77
2022/02/05 08:10:08;;;;;;;4.88;1.98;;;4.20;65.90;;;;;;5058239;28;20209;-77
2022/02/05 08:12:41;;;;;;;9.38;2.67;;;4.30;65.70;;;;;;5088343;22;20241;-77
2022/02/05 08:15:09;;;;;;;4.28;2.28;;;4.40;65.10;;;;;;5058885;28;20225;-77
2022/02/05 08:17:37;;;;;;;1.98;1.52;;;4.40;64.10;;;;;;5058370;28;20575;-77
2022/02/05 08:20:05;;;;;;;4.30;2.40;;;4.40;63.80;;;;;;5059156;28;20224;-77
2022/02/05 08:22:31;;;;;;;9.05;3.17;;;4.50;63.90;;;;;;5058777;28;20320;-78
2022/02/05 08:24:58;;;;;;;4.80;2.20;;;4.60;64.00;;;;;;5057569;28;20198;-78
2022/02/05 08:27:27;;;;;;;5.68;2.20;;;4.60;64.00;;;;;;5057405;28;20231;-77
2022/02/05 08:29:56;;;;;;;3.70;2.47;;;4.60;64.00;;;;;;5058004;28;20549;-77
2022/02/05 08:32:26;;;;;;;6.90;2.85;;;4.70;63.50;;;;;;5057341;28;20287;-78
2022/02/05 08:34:54;;;;;;;5.03;1.65;;;4.80;63.10;;;;;;5057268;28;20216;-79
2022/02/05 08:37:21;;;;;;;5.20;2.13;;;4.80;62.20;;;;;;5058340;28;20201;-78
2022/02/05 08:39:48;;;;;;;6.18;2.45;;;4.80;62.60;;;;;;5061338;28;20258;-77
2022/02/05 08:42:15;;;;;;;4.20;2.60;;;4.80;62.40;;;;;;5057146;28;20253;-79
2022/02/05 08:44:44;;;;;;;5.07;3.00;;;4.80;62.90;;;;;;5056095;28;20287;-78
2022/02/05 08:47:11;;;;;;;6.25;2.30;;;4.80;61.90;;;;;;5047353;28;20213;-77
2022/02/05 08:49:38;;;;;;;4.75;2.67;;;4.80;61.80;;;;;;5056038;28;20217;-76
2022/02/05 08:52:08;;;;;;;9.90;3.00;;;4.90;61.50;;;;;;5055544;28;20664;-76
2022/02/05 08:54:36;;;;;;;6.03;2.45;;;5.00;61.30;;;;;;5058239;28;20208;-76
2022/02/05 08:57:04;;;;;;;5.30;2.42;;;5.10;60.60;;;;;;5063923;28;20642;-77
2022/02/05 08:59:42;;;;;;;8.35;2.83;;;5.10;60.50;;;;;;5064745;28;20214;-77
2022/02/05 09:02:15;;;;;;;6.10;2.03;;;5.10;60.40;;;;;;5063299;28;20230;-77
2022/02/05 09:04:51;;;;;;;4.10;2.28;;;5.10;60.30;;;;;;5065025;28;20194;-78
2022/02/05 09:07:19;;;;;;;5.53;2.40;;;5.20;60.00;;;;;;5063763;28;20555;-77
2022/02/05 09:10:00;;;;;;;5.43;2.45;;;5.20;60.00;;;;;;5059813;28;20214;-78
2022/02/05 09:12:43;;;;;;;8.30;3.05;;;5.30;60.00;;;;;;5055174;28;20638;-77
2022/02/05 09:15:10;;;;;;;4.05;2.72;;;5.30;59.50;;;;;;5056078;28;20212;-79
2022/02/05 09:17:39;;;;;;;5.32;2.53;;;5.30;59.40;;;;;;5055572;28;20209;-76
2022/02/05 09:20:07;;;;;;;6.03;2.72;;;5.30;58.80;;;;;;5056031;28;20748;-77
2022/02/05 09:22:34;;;;;;;5.40;2.10;;;5.20;59.30;;;;;;5054598;28;20721;-76
2022/02/05 09:25:04;;;;;;;4.72;2.50;;;5.20;59.60;;;;;;5055368;28;20551;-80
2022/02/05 09:27:38;;;;;;;8.20;3.13;;;5.10;60.40;;;;;;5054823;28;20621;-79
2022/02/05 09:30:13;;;;;;;2.83;2.38;;;5.20;60.10;;;;;;5055368;28;20253;-77
2022/02/05 09:32:41;;;;;;;7.70;2.60;;;5.20;60.00;;;;;;5055506;28;20259;-78
2022/02/05 09:35:10;;;;;;;5.45;2.70;;;5.20;59.90;;;;;;5055261;28;20296;-77
2022/02/05 09:37:37;;;;;;;3.05;2.28;;;5.20;60.00;;;;;;5055550;28;20202;-77
2022/02/05 09:40:06;;;;;;;6.15;3.05;;;5.30;60.20;;;;;;5055726;28;20256;-79
2022/02/05 09:42:33;;;;;;;3.63;2.90;;;5.40;60.20;;;;;;5057872;28;20333;-77
2022/02/05 09:45:01;;;;;;;9.57;2.30;;;5.50;60.20;;;;;;5063083;28;20205;-78
2022/02/05 09:47:28;;;;;;;9.52;4.00;;;5.60;59.30;;;;;;5064076;28;20547;-78
2022/02/05 09:49:56;;;;;;;6.07;2.60;;;5.60;58.90;;;;;;5064788;28;20220;-78
2022/02/05 09:52:27;;;;;;;3.50;2.05;;;5.70;58.60;;;;;;5068028;28;20251;-78
2022/02/05 09:54:54;;;;;;;6.07;2.53;;;5.70;57.70;;;;;;5068809;28;20221;-78
2022/02/05 09:57:21;;;;;;;6.07;2.30;;;5.70;57.00;;;;;;5062234;28;20267;-79
2022/02/05 09:59:54;;;;;;;5.88;2.70;;;5.70;56.60;;;;;;5069084;28;20253;-79
2022/02/05 10:02:23;;;;;;;4.53;2.33;;;5.80;56.30;;;;;;5067694;28;20234;-80
2022/02/05 10:04:58;;;;;;;2.25;1.85;;;5.80;56.00;;;;;;5069219;28;20236;-79
2022/02/05 10:07:27;;;;;;;3.30;1.98;;;5.90;56.10;;;;;;5071100;28;20205;-82
2022/02/05 10:09:55;;;;;;;4.70;2.33;;;6.00;55.50;;;;;;5077110;28;20210;-81
2022/02/05 10:12:26;;;;;;;6.40;2.40;;;6.10;55.20;;;;;;5075955;28;20262;-80
2022/02/05 10:14:57;;;;;;;6.45;2.63;;;6.10;54.70;;;;;;5072020;28;20647;-79
2022/02/05 10:17:42;;;;;;;6.78;2.00;;;6.30;54.30;;;;;;5069585;28;20279;-79
2022/02/05 10:20:13;;;;;;;8.02;2.17;;;6.30;53.30;;;;;;5068368;28;20711;-78
2022/02/05 10:22:46;;;;;;;5.40;2.03;;;6.30;52.90;;;;;;5062409;28;20323;-79
2022/02/05 10:25:20;;;;;;;3.40;2.20;;;6.40;52.90;;;;;;5062782;28;20265;-78
2022/02/05 10:28:01;;;;;;;5.93;2.50;;;6.60;52.80;;;;;;5063000;28;20208;-79
2022/02/05 10:30:34;;;;;;;4.45;2.10;;;6.70;52.30;;;;;;5071705;28;20295;-79
2022/02/05 10:35:54;;;;;;;6.07;2.47;;;7.00;51.50;;;;;;5061873;28;20216;-81
2022/02/05 10:43:55;;;;;;;4.20;2.53;;;7.30;50.70;;;;;;5062408;28;20764;-79
2022/02/05 10:46:22;;;;;;;4.50;1.95;;;7.20;50.60;;;;;;5064245;28;20679;-79
2022/02/05 10:48:49;;;;;;;4.40;2.78;;;7.20;51.10;;;;;;5065865;28;20284;-80
2022/02/05 10:51:18;;;;;;;5.97;2.45;;;7.20;51.20;;;;;;5064794;28;20219;-79
2022/02/05 10:53:49;;;;;;;5.95;2.55;;;6.90;51.60;;;;;;5064826;28;20259;-81
2022/02/05 10:56:28;;;;;;;2.83;1.75;;;6.90;51.80;;;;;;5064450;28;20294;-80
2022/02/05 10:59:15;;;;;;;4.80;2.50;;;6.80;52.20;;;;;;5066346;28;20188;-81
2022/02/05 11:07:15;;;;;;;7.10;2.80;;;6.70;52.40;;;;;;5072386;28;20228;-79
2022/02/05 11:09:44;;;;;;;3.42;2.20;;;6.80;52.20;;;;;;5073804;28;20204;-80
2022/02/05 11:20:26;;;;;;;5.65;2.67;;;7.00;51.50;;;;;;5076384;28;20225;-81
2022/02/05 11:22:58;;;;;;;5.82;2.90;;;7.00;51.50;;;;;;5077173;28;20255;-80
2022/02/05 11:25:30;;;;;;;6.65;2.88;;;7.10;51.40;;;;;;5076157;28;20250;-80
2022/02/05 11:27:58;;;;;;;11.70;3.05;;;7.10;50.90;;;;;;5076227;28;20215;-79
2022/02/05 11:30:36;;;;;;;4.25;2.30;;;7.10;50.80;;;;;;5075202;28;20262;-81
2022/02/05 11:33:06;;;;;;;4.95;2.83;;;7.10;50.50;;;;;;5077423;28;20290;-80
2022/02/05 11:35:46;;;;;;;5.75;2.90;;;7.20;50.70;;;;;;5076925;28;20244;-81
2022/02/05 11:38:16;;;;;;;9.30;2.85;;;7.40;50.80;;;;;;5076075;28;20445;-81
2022/02/05 11:40:53;;;;;;;6.30;2.30;;;7.40;50.20;;;;;;5072025;28;20289;-79
2022/02/05 11:43:25;;;;;;;8.13;6.03;;;7.50;50.00;;;;;;5071474;28;20301;-80
2022/02/05 11:46:13;;;;;;;5.75;2.88;;;7.60;50.10;;;;;;5072666;28;20208;-79
2022/02/05 11:48:45;;;;;;;6.53;2.80;;;7.80;48.50;;;;;;5069404;28;20725;-81
2022/02/05 11:51:17;;;;;;;2.95;2.40;;;8.00;48.50;;;;;;5065335;28;20208;-79
2022/02/05 11:54:15;;;;;;;4.40;2.47;;;8.00;48.50;;;;;;5065131;28;20235;-78
2022/02/05 11:56:55;;;;;;;7.95;2.65;;;8.00;48.50;;;;;;5069037;28;20205;-80
2022/02/05 11:59:25;;;;;;;5.30;3.13;;;7.90;48.40;;;;;;5075057;28;20197;-81
2022/02/05 12:02:11;;;;;;;5.22;3.03;;;7.90;48.40;;;;;;5070616;28;20207;-81
2022/02/05 12:04:38;;;;;;;4.93;2.60;;;8.00;48.50;;;;;;5070676;28;20242;-80
2022/02/05 12:07:07;;;;;;;6.85;3.33;;;8.10;48.50;;;;;;5070295;28;20223;-81
2022/02/05 12:09:41;;;;;;;5.15;2.45;;;8.20;48.70;;;;;;5071108;28;20200;-81
2022/02/05 12:12:45;;;;;;;7.20;2.97;;;8.20;47.80;;;;;;5072249;28;20232;-80
2022/02/05 12:15:26;;;;;;;4.90;3.28;;;8.30;48.60;;;;;;5074949;28;20212;-79
2022/02/05 12:18:13;;;;;;;6.85;2.85;;;8.30;48.80;;;;;;5075006;28;20210;-79
2022/02/05 12:21:26;;;;;;;3.85;2.40;;;8.40;47.70;;;;;;5073592;28;20256;-79
2022/02/05 12:26:47;;;;;;;3.58;2.30;;;8.20;47.30;;;;;;5057315;28;20196;-81
2022/02/05 12:29:30;;;;;;;5.43;2.75;;;8.20;47.00;;;;;;5061269;28;20207;-80
2022/02/05 12:31:57;;;;;;;6.35;2.40;;;8.20;46.50;;;;;;5061741;28;20224;-81
2022/02/05 12:34:24;;;;;;;4.30;2.67;;;8.20;46.10;;;;;;5059171;28;20212;-79
2022/02/05 12:36:54;;;;;;;4.25;2.90;;;8.20;46.30;;;;;;5057312;28;20211;-80
2022/02/05 12:39:26;;;;;;;3.78;2.08;;;8.20;46.50;;;;;;5055627;28;20250;-80
2022/02/05 12:41:57;;;;;;;4.15;2.17;;;8.30;45.90;;;;;;5063031;28;20203;-80
2022/02/05 12:44:27;;;;;;;7.18;3.72;;;8.30;45.20;;;;;;5070156;28;20217;-80
2022/02/05 12:46:59;;;;;;;5.60;3.38;;;8.30;44.60;;;;;;5066937;28;20207;-81
2022/02/05 12:49:29;;;;;;;3.05;2.55;;;8.40;45.10;;;;;;5060502;28;20244;-78
2022/02/05 12:51:58;;;;;;;4.55;2.90;;;8.30;44.60;;;;;;5058741;28;20670;-78
2022/02/05 12:54:28;;;;;;;2.30;2.10;;;8.40;45.00;;;;;;5059921;28;20221;-78
2022/02/05 12:56:57;;;;;;;3.17;1.90;;;8.50;44.50;;;;;;5061133;28;20286;-79
2022/02/05 12:59:31;;;;;;;4.25;1.85;;;8.60;43.90;;;;;;5068495;28;20220;-78
2022/02/05 13:01:59;;;;;;;6.97;3.05;;;8.60;44.20;;;;;;5075205;28;20227;-79
2022/02/05 13:04:28;;;;;;;7.68;3.25;;;8.60;44.20;;;;;;5072333;28;20675;-77
2022/02/05 13:07:04;;;;;;;2.30;2.10;;;8.60;43.80;;;;;;5059498;28;20297;-77
2022/02/05 13:09:34;;;;;;;8.27;3.30;;;8.60;43.50;;;;;;5059856;28;20257;-78
2022/02/05 13:12:05;;;;;;;5.90;2.53;;;8.70;43.90;;;;;;5060227;28;20244;-79
2022/02/05 13:14:42;;;;;;;7.38;2.03;;;8.70;43.00;;;;;;5064366;28;20209;-78
2022/02/05 13:17:27;;;;;;;8.43;2.05;;;8.70;42.90;;;;;;5065031;28;20352;-78
2022/02/05 13:20:13;;;;;;;4.28;1.48;;;8.90;42.70;;;;;;5067511;28;20191;-78
2022/02/05 13:34:03;;;;;;;3.22;2.55;;;8.40;42.90;;;;;;5067193;28;20231;-78
2022/02/05 13:36:41;;;;;;;4.72;2.90;;;8.30;43.90;;;;;;5070819;28;20222;-77
2022/02/05 13:39:17;;;;;;;3.83;3.13;;;8.20;43.80;;;;;;5074450;28;20673;-77
2022/02/05 13:41:51;;;;;;;2.40;1.70;;;8.10;44.60;;;;;;5072826;28;20279;-80
2022/02/05 13:44:22;;;;;;;8.45;2.88;;;8.10;44.30;;;;;;5064328;28;20205;-82
2022/02/05 13:47:04;;;;;;;4.22;2.55;;;8.10;44.20;;;;;;5059460;28;20206;-80
2022/02/05 13:49:32;;;;;;;4.05;1.83;;;8.20;44.00;;;;;;5062824;28;20215;-81
2022/02/05 13:52:10;;;;;;;4.53;1.83;;;8.20;44.10;;;;;;5063823;28;20220;-80
2022/02/05 13:54:38;;;;;;;5.32;1.90;;;8.30;43.90;;;;;;5061326;28;20253;-79
2022/02/05 13:57:09;;;;;;;3.63;1.50;;;8.50;44.10;;;;;;5057853;28;20250;-79
2022/02/05 13:59:43;;;;;;;8.32;2.53;;;8.50;42.80;;;;;;5065799;28;20210;-82
2022/02/05 14:04:45;;;;;;;3.95;1.77;;;8.50;42.90;;;;;;5151534;22;20297;-82
2022/02/05 14:07:41;;;;;;;3.83;1.85;;;8.50;42.90;;;;;;5051181;28;20580;-80
2022/02/05 14:10:18;;;;;;;7.82;2.03;;;8.60;42.50;;;;;;5052219;28;20198;-81
2022/02/05 14:13:03;;;;;;;5.22;4.10;;;8.60;42.70;;;;;;5036482;28;20225;-81
2022/02/05 14:15:49;;;;;;;2.95;1.80;;;8.50;42.70;;;;;;5049400;22;20203;-78
2022/02/05 14:18:16;;;;;;;7.88;7.00;;;8.50;42.50;;;;;;5035138;28;20227;-79
2022/02/05 14:20:50;;;;;;;3.88;1.95;;;8.60;42.80;;;;;;5033639;28;20227;-78
2022/02/05 14:23:19;;;;;;;6.53;1.80;;;8.60;42.40;;;;;;5027873;28;20230;-80
2022/02/05 14:25:55;;;;;;;5.75;4.88;;;8.50;42.20;;;;;;5029526;28;20231;-79
2022/02/05 14:28:34;;;;;;;3.40;2.10;;;8.40;42.80;;;;;;5011632;28;20240;-78
2022/02/05 14:31:11;;;;;;;4.05;1.80;;;8.30;42.90;;;;;;5016213;28;20205;-79
2022/02/05 14:42:10;;;;;;;6.00;1.83;;;8.40;43.00;;;;;;5000104;28;20381;-79
2022/02/05 14:44:38;;;;;;;7.22;1.98;;;8.40;43.30;;;;;;5008080;28;20583;-78
2022/02/05 14:47:08;;;;;;;6.40;1.90;;;8.30;43.40;;;;;;4996268;28;20324;-78
2022/02/05 14:49:35;;;;;;;3.95;1.80;;;8.20;43.20;;;;;;5025044;28;20202;-79
2022/02/05 14:52:02;;;;;;;3.22;1.83;;;8.20;43.40;;;;;;5016388;28;20213;-77
2022/02/05 14:54:29;;;;;;;3.83;1.63;;;8.10;43.70;;;;;;4999847;28;20208;-77
2022/02/05 14:56:56;;;;;;;8.77;2.22;;;8.10;44.00;;;;;;4994600;28;20231;-78
2022/02/05 14:59:23;;;;;;;4.82;2.33;;;8.20;44.90;;;;;;5010737;28;20209;-79
2022/02/05 15:01:50;;;;;;;4.25;2.33;;;8.20;45.30;;;;;;5012358;28;20224;-78
2022/02/05 15:04:18;;;;;;;7.00;2.20;;;8.20;45.20;;;;;;5014383;28;20587;-78
2022/02/05 15:06:47;;;;;;;3.08;1.92;;;8.20;45.80;;;;;;5017950;28;20229;-79
2022/02/05 15:09:14;;;;;;;6.82;1.90;;;8.20;46.00;;;;;;5014470;28;20281;-80
2022/02/05 15:11:41;;;;;;;4.00;1.92;;;8.20;46.10;;;;;;5017679;28;20216;-78
2022/02/05 15:14:08;;;;;;;6.45;2.00;;;8.20;46.10;;;;;;5014148;28;20671;-78
2022/02/05 15:16:37;;;;;;;2.80;1.35;;;8.30;46.50;;;;;;5017964;28;20328;-79
2022/02/05 15:19:05;;;;;;;2.58;1.90;;;8.20;46.50;;;;;;5018293;28;20214;-78
2022/02/05 15:21:35;;;;;;;4.80;1.80;;;8.20;46.80;;;;;;5001104;28;20709;-77
2022/02/05 15:24:02;;;;;;;7.90;1.92;;;8.20;46.80;;;;;;5019801;28;20210;-77
2022/02/05 15:26:32;;;;;;;5.07;1.70;;;8.20;46.60;;;;;;5021957;28;20324;-77
2022/02/05 15:28:59;;;;;;;3.97;1.40;;;8.20;46.60;;;;;;5015070;28;20274;-79
2022/02/05 15:31:26;;;;;;;3.80;1.75;;;8.20;47.00;;;;;;5023237;28;20225;-79
2022/02/05 15:33:57;;;;;;;4.13;1.80;;;8.30;47.20;;;;;;5033097;28;20210;-79
2022/02/05 15:36:28;;;;;;;3.20;1.50;;;8.30;46.80;;;;;;5051728;28;20577;-79